Share

Juigalpa, Nicaragua

5:08 PM CST on April 24, 2014 (GMT -0600)
Juigalpa (MNJU) Elev 295 ft | 12.10 °N, 85.37 °W | Change Station

Current weather conditions updated 1 hour ago

Scattered Clouds
Scattered Clouds
93 °F
Feels Like 100 °F
N
5
Wind Variable Wind from ENE
Sunrise 5:24 AM
Sunset 5:54 PM
Moon Waning Crescent

Tomorrow is forecast to be Cooler than today. Thunderstorms developing in the afternoon.

Pressure 29.83 in
Visibility 6.2 miles
Clouds Few 2000 ft
Scattered Clouds 30000 ft
Heat Index 100 °F
Dew Point 72 °F
Humidity 49%
Rainfall 0.00 in
Snow Depth Not available.
UV 3 out of 16
Pollen Not available.
Air Quality Not available.
Flu Activity Not available.
METAR MNJU 242200Z 06004KT 9999 FEW020 SCT300 34/22 Q1010

More Conditions Fewer Conditions

Pressure 29.83 in
Visibility 6.2 miles
Clouds Few 2000 ft
Scattered Clouds 30000 ft
Heat Index 100 °F
Dew Point 72 °F
Humidity 49%
Rainfall 0.00 in
Snow Depth Not available.
UV 3 out of 16
Pollen Not available.
Air Quality Not available.
Flu Activity Not available.
METAR MNJU 242200Z 06004KT 9999 FEW020 SCT300 34/22 Q1010

More Conditions Fewer Conditions

10-Day Weather Forecast

Almanac

Astronomy

Apr. 24, 2014 Rise Set
Actual Time 5:24 AM CST 5:54 PM CST
Civil Twilight 5:03 AM CST 6:16 PM CST
Nautical Twilight 4:37 AM CST 6:41 PM CST
Astronomical Twilight 4:11 AM CST 7:07 PM CST
Moon 1:42 AM CST 1:56 PM CST
Length of Visible Light 13h 13m
Length of Day
12h 29m
Tomorrow will be 0m 37s longer.
Waning Crescent, 22% of the Moon is Illuminated
Today
Waning Crescent
Apr 29
New
May 6
First Quarter
May 14
Full
May 21
Last Quarter

Today's Extremes

Country Highs Country Lows

Community

  • Jone Runs Falls
    Jone Runs Falls
  • Easter in Shenandoah National Park
    Easter in Shenandoah National Park
  • Sunset at Apalachicola Bay, Florida
    Sunset at Apalachicola Bay, Florida
  • Clouds mov'n in
    Clouds mov'n in
  • Stacked
    Stacked

WunderPhotos

Upload Photos

1,704,735 photos uploaded!

Nearby

Snow Depth

Not available.

Coastal Water Temperatures

Place Temperature
No Stations Reporting

Earthquake Activity

City Distance Mag. Time & Date
No recent earthquake activity has been reported nearby.
Minimum magnitude displayed is 2.5.

Nearby Weather Stations

There are no personal weather stations in this area.

What do you think?

We're not finished. Please let us know what you like, what you don't like, and what you are still missing.